createdAt,value
2022-11-29T00:02:20.013Z,11.18
2022-11-29T00:05:22.012Z,11.02
2022-11-29T00:08:24.460Z,12.35
2022-11-29T00:11:48.162Z,12.43
2022-11-29T00:14:49.820Z,10.85
2022-11-29T00:17:51.503Z,11.57
2022-11-29T00:20:53.229Z,11.50
2022-11-29T00:23:55.369Z,11.43
2022-11-29T00:26:57.059Z,11.98
2022-11-29T00:29:58.876Z,11.05
2022-11-29T00:33:00.623Z,12.13
2022-11-29T00:36:02.330Z,11.10
2022-11-29T00:39:05.178Z,11.32
2022-11-29T00:42:07.512Z,11.40
2022-11-29T00:45:09.632Z,12.00
2022-11-29T00:48:11.549Z,11.82
2022-11-29T00:51:13.525Z,11.15
2022-11-29T00:54:15.911Z,11.63
2022-11-29T00:57:17.615Z,12.38
2022-11-29T01:00:19.433Z,12.02
2022-11-29T01:03:21.210Z,12.40
2022-11-29T01:06:23.039Z,11.95
2022-11-29T01:09:24.683Z,12.82
2022-11-29T01:12:26.411Z,11.20
2022-11-29T01:15:28.483Z,12.30
2022-11-29T01:18:30.673Z,12.55
2022-11-29T01:21:32.494Z,12.05
2022-11-29T01:24:34.210Z,12.50
2022-11-29T01:27:35.915Z,11.73
2022-11-29T01:30:37.973Z,13.32
2022-11-29T01:33:39.855Z,13.27
2022-11-29T01:36:41.422Z,12.13
2022-11-29T01:39:43.169Z,12.82
2022-11-29T01:42:44.818Z,10.68
2022-11-29T01:45:46.515Z,11.20
2022-11-29T01:48:49.412Z,11.73
2022-11-29T01:51:54.567Z,12.32
2022-11-29T01:55:00.250Z,11.35
2022-11-29T01:58:01.929Z,11.30
2022-11-29T02:01:03.853Z,11.98
2022-11-29T02:04:06.580Z,12.38
2022-11-29T02:07:08.357Z,10.73
2022-11-29T02:10:10.540Z,11.95
2022-11-29T02:13:56.992Z,11.18
2022-11-29T02:17:03.442Z,10.93
2022-11-29T02:20:11.622Z,11.32
2022-11-29T02:23:25.370Z,11.27
2022-11-29T02:27:14.739Z,11.48
2022-11-29T02:30:21.578Z,11.40
2022-11-29T02:33:57.483Z,10.70
2022-11-29T02:37:28.925Z,12.00
2022-11-29T02:40:50.059Z,10.88
2022-11-29T02:44:22.325Z,9.95
2022-11-29T02:48:01.815Z,11.13
2022-11-29T02:51:18.525Z,11.20
2022-11-29T02:54:33.380Z,10.93
2022-11-29T02:57:59.988Z,11.27
2022-11-29T03:01:13.066Z,11.25
2022-11-29T03:04:33.705Z,12.25
2022-11-29T03:08:00.265Z,10.90
2022-11-29T03:11:23.662Z,10.88
2022-11-29T03:14:28.719Z,10.93
2022-11-29T03:17:48.595Z,11.38
2022-11-29T03:21:23.523Z,11.93
2022-11-29T03:24:37.137Z,10.30
2022-11-29T03:30:57.408Z,10.35
2022-11-29T03:34:13.269Z,8.70
2022-11-29T03:37:29.940Z,10.82
2022-11-29T03:40:42.332Z,10.70
2022-11-29T03:44:05.772Z,12.40
2022-11-29T03:47:18.336Z,11.13
2022-11-29T03:50:29.282Z,10.88
2022-11-29T03:53:57.341Z,9.98
2022-11-29T03:57:01.937Z,10.32
2022-11-29T04:00:13.455Z,10.93
2022-11-29T04:03:40.103Z,10.93
2022-11-29T04:07:22.911Z,11.40
2022-11-29T04:10:52.137Z,11.13
2022-11-29T04:14:16.925Z,10.68
2022-11-29T04:17:37.186Z,9.35
2022-11-29T04:21:06.873Z,10.30
2022-11-29T04:24:47.131Z,10.88
2022-11-29T04:28:06.792Z,9.65
2022-11-29T04:31:28.511Z,11.15
2022-11-29T04:34:48.227Z,11.77
2022-11-29T04:38:20.069Z,10.48
2022-11-29T04:41:43.116Z,9.85
2022-11-29T04:44:50.955Z,11.38
2022-11-29T04:48:24.708Z,10.70
2022-11-29T04:51:41.343Z,10.60
2022-11-29T04:55:04.534Z,10.38
2022-11-29T04:58:28.134Z,11.52
2022-11-29T05:01:46.488Z,11.55
2022-11-29T05:04:56.208Z,11.63
2022-11-29T05:08:22.336Z,11.93
2022-11-29T05:11:44.509Z,11.88
2022-11-29T05:15:07.691Z,11.23
2022-11-29T05:18:12.209Z,11.50
2022-11-29T05:21:37.057Z,11.15
2022-11-29T05:24:54.020Z,10.82
2022-11-29T05:27:58.787Z,11.23
2022-11-29T05:31:38.723Z,12.88
2022-11-29T05:34:49.233Z,12.05
2022-11-29T05:37:56.989Z,12.80
2022-11-29T05:41:20.408Z,11.32
2022-11-29T05:44:38.138Z,11.35
2022-11-29T05:47:50.314Z,10.88
2022-11-29T05:51:21.157Z,12.25
2022-11-29T05:54:35.607Z,11.52
2022-11-29T05:58:00.779Z,11.13
2022-11-29T06:01:26.172Z,11.50
2022-11-29T06:05:24.109Z,11.60
2022-11-29T06:08:50.111Z,10.50
2022-11-29T06:12:14.859Z,10.60
2022-11-29T06:15:30.233Z,10.38
2022-11-29T06:18:50.285Z,10.18
2022-11-29T06:22:20.957Z,10.55
2022-11-29T06:26:04.117Z,9.95
2022-11-29T06:29:22.145Z,11.20
2022-11-29T06:32:55.485Z,11.52
2022-11-29T06:36:17.349Z,10.23
2022-11-29T06:39:19.167Z,10.73
2022-11-29T06:42:20.811Z,9.98
2022-11-29T06:45:22.681Z,11.20
2022-11-29T06:48:27.200Z,12.43
2022-11-29T06:51:36.163Z,10.82
2022-11-29T06:55:02.822Z,10.82
2022-11-29T06:58:10.743Z,11.70
2022-11-29T07:01:19.579Z,10.85
2022-11-29T07:04:45.644Z,9.50
2022-11-29T07:07:48.803Z,11.18
2022-11-29T07:10:54.136Z,11.32
2022-11-29T07:13:56.552Z,10.05
2022-11-29T07:17:20.574Z,11.05
2022-11-29T07:21:09.249Z,12.52
2022-11-29T07:24:26.374Z,12.98
2022-11-29T07:27:37.208Z,15.52
2022-11-29T07:30:57.222Z,13.13
2022-11-29T07:34:17.682Z,13.75
2022-11-29T07:37:40.899Z,13.05
2022-11-29T07:41:04.061Z,11.77
2022-11-29T07:44:49.395Z,12.45
2022-11-29T07:47:51.604Z,13.15
2022-11-29T07:50:54.988Z,12.88
2022-11-29T07:53:56.815Z,14.73
2022-11-29T07:56:58.421Z,15.20
2022-11-29T08:00:00.538Z,17.88
2022-11-29T08:03:02.197Z,16.73
2022-11-29T08:06:04.091Z,16.00
2022-11-29T08:09:10.659Z,14.35
2022-11-29T08:12:12.309Z,15.25
2022-11-29T08:15:14.245Z,16.45
2022-11-29T08:18:16.325Z,16.35
2022-11-29T08:21:18.351Z,16.40
2022-11-29T08:24:19.945Z,14.57
2022-11-29T08:27:21.550Z,13.93
2022-11-29T08:30:23.851Z,13.05
2022-11-29T08:33:25.539Z,11.63
2022-11-29T08:36:27.246Z,10.68
2022-11-29T08:39:28.859Z,10.43
2022-11-29T08:42:30.527Z,41.67
2022-11-29T08:45:32.186Z,53.58
2022-11-29T08:48:34.018Z,18.83
2022-11-29T08:51:35.808Z,14.48
2022-11-29T08:54:37.370Z,35.08
2022-11-29T08:57:40.601Z,17.95
2022-11-29T09:00:45.472Z,14.63
2022-11-29T09:04:10.503Z,25.65
2022-11-29T09:07:12.330Z,12.98
2022-11-29T09:10:13.902Z,12.45
2022-11-29T09:13:18.223Z,12.35
2022-11-29T09:16:22.770Z,14.80
2022-11-29T09:19:24.786Z,14.13
2022-11-29T09:22:26.403Z,12.95
2022-11-29T09:25:28.771Z,11.57
2022-11-29T09:28:30.939Z,9.43
2022-11-29T09:31:33.248Z,8.73
2022-11-29T09:34:35.069Z,8.55
2022-11-29T09:37:37.056Z,11.75
2022-11-29T09:41:08.178Z,10.73
2022-11-29T09:44:22.341Z,9.07
2022-11-29T09:47:56.446Z,9.55
2022-11-29T09:51:17.691Z,10.05
2022-11-29T09:54:45.825Z,10.15
2022-11-29T09:57:49.473Z,8.77
2022-11-29T10:00:56.557Z,12.55
2022-11-29T10:04:03.014Z,15.00
2022-11-29T10:07:18.892Z,9.35
2022-11-29T10:10:31.147Z,12.60
2022-11-29T10:13:35.518Z,8.27
2022-11-29T10:16:56.913Z,7.68
2022-11-29T10:20:13.911Z,8.40
2022-11-29T10:23:23.648Z,7.60
2022-11-29T10:26:28.175Z,6.35
2022-11-29T10:29:33.102Z,6.32
2022-11-29T10:32:34.783Z,6.27
2022-11-29T10:35:37.096Z,6.88
2022-11-29T10:38:38.736Z,6.90
2022-11-29T10:41:40.552Z,8.10
2022-11-29T10:44:42.427Z,8.93
2022-11-29T10:47:48.771Z,8.02
2022-11-29T10:50:52.327Z,6.57
2022-11-29T10:53:54.767Z,6.75
2022-11-29T10:57:01.650Z,5.90
2022-11-29T11:00:10.659Z,6.43
2022-11-29T11:03:48.928Z,6.60
2022-11-29T11:06:59.909Z,7.15
2022-11-29T11:10:15.852Z,7.65
2022-11-29T11:13:25.868Z,6.82
2022-11-29T11:16:30.541Z,8.38
2022-11-29T11:19:34.902Z,6.70
2022-11-29T11:22:39.849Z,6.18
2022-11-29T11:25:41.607Z,6.00
2022-11-29T11:28:54.171Z,6.75
2022-11-29T11:31:57.987Z,4.70
2022-11-29T11:35:01.454Z,4.53
2022-11-29T11:38:03.181Z,3.78
2022-11-29T11:41:16.705Z,3.33
2022-11-29T11:47:54.869Z,3.53
2022-11-29T11:50:59.436Z,3.72
2022-11-29T11:54:01.187Z,3.47
2022-11-29T11:57:03.559Z,3.80
2022-11-29T12:00:07.351Z,3.20
2022-11-29T12:03:33.580Z,2.80
2022-11-29T12:06:54.461Z,3.05
2022-11-29T12:10:01.761Z,3.65
2022-11-29T12:13:05.043Z,3.28
2022-11-29T12:16:19.866Z,3.75
2022-11-29T12:19:27.763Z,3.70
2022-11-29T12:22:37.819Z,3.08
2022-11-29T12:25:46.033Z,3.13
2022-11-29T12:28:48.405Z,3.05
2022-11-29T12:31:59.542Z,2.60
2022-11-29T12:35:50.064Z,2.90
2022-11-29T12:39:00.435Z,2.63
2022-11-29T12:42:36.051Z,2.60
2022-11-29T12:45:52.663Z,2.95
2022-11-29T12:49:13.916Z,2.13
2022-11-29T12:52:48.342Z,1.90
2022-11-29T12:56:04.947Z,2.33
2022-11-29T12:59:44.232Z,2.50
2022-11-29T13:03:02.146Z,1.95
2022-11-29T13:06:22.451Z,2.10
2022-11-29T13:09:32.843Z,1.95
2022-11-29T13:12:50.392Z,2.00
2022-11-29T13:16:06.613Z,2.05
2022-11-29T13:19:08.201Z,2.45
2022-11-29T13:22:27.657Z,2.08
2022-11-29T13:25:41.476Z,2.40
2022-11-29T13:28:46.324Z,2.13
2022-11-29T13:31:48.851Z,2.15
2022-11-29T13:34:51.860Z,2.38
2022-11-29T13:38:17.518Z,2.50
2022-11-29T13:41:32.009Z,2.20
2022-11-29T13:44:39.987Z,2.97
2022-11-29T13:47:49.800Z,2.63
2022-11-29T13:50:51.401Z,1.95
2022-11-29T13:53:55.020Z,2.00
2022-11-29T13:57:06.515Z,2.40
2022-11-29T14:00:26.877Z,2.65
2022-11-29T14:03:38.384Z,1.83
2022-11-29T14:06:40.891Z,3.03
2022-11-29T14:10:16.314Z,2.97
2022-11-29T14:13:18.000Z,2.67
2022-11-29T14:16:42.519Z,2.58
2022-11-29T14:19:44.117Z,2.20
2022-11-29T14:23:04.269Z,2.95
2022-11-29T14:26:05.834Z,2.38
2022-11-29T14:29:45.809Z,2.47
2022-11-29T14:33:08.960Z,2.58
2022-11-29T14:36:41.653Z,2.53
2022-11-29T14:39:49.195Z,3.05
2022-11-29T14:42:53.515Z,2.35
2022-11-29T14:46:08.557Z,2.50
2022-11-29T14:49:22.118Z,2.35
2022-11-29T14:52:28.531Z,2.83
2022-11-29T14:55:36.786Z,2.42
2022-11-29T14:58:38.364Z,2.60
2022-11-29T15:01:45.464Z,2.85
2022-11-29T15:04:51.000Z,2.53
2022-11-29T15:08:28.978Z,2.78
2022-11-29T15:11:43.520Z,2.55
2022-11-29T15:15:06.715Z,2.60
2022-11-29T15:18:50.340Z,2.53
2022-11-29T15:22:11.490Z,3.08
2022-11-29T15:25:17.393Z,4.85
2022-11-29T15:28:27.638Z,4.97
2022-11-29T15:31:32.553Z,12.43
2022-11-29T15:34:40.128Z,39.05
2022-11-29T15:37:44.700Z,22.50
2022-11-29T15:40:55.571Z,35.28
2022-11-29T15:44:05.390Z,17.60
2022-11-29T15:47:29.212Z,25.17
2022-11-29T15:53:47.083Z,13.98
2022-11-29T15:57:05.971Z,10.85
2022-11-29T16:00:15.270Z,9.48
2022-11-29T16:03:45.091Z,6.57
2022-11-29T16:06:49.621Z,4.57
2022-11-29T16:09:58.452Z,4.82
2022-11-29T16:13:07.011Z,5.00
2022-11-29T16:16:17.685Z,4.07
2022-11-29T16:19:25.799Z,3.80
2022-11-29T16:22:27.367Z,3.75
2022-11-29T16:25:33.291Z,3.80
2022-11-29T16:28:44.037Z,4.65
2022-11-29T16:31:45.777Z,3.88
2022-11-29T16:34:47.732Z,4.05
2022-11-29T16:37:49.958Z,4.13
2022-11-29T16:41:07.019Z,4.25
2022-11-29T16:44:43.642Z,5.32
2022-11-29T16:47:58.394Z,4.75
2022-11-29T16:51:15.161Z,4.63
2022-11-29T16:54:28.759Z,6.38
2022-11-29T17:00:33.463Z,9.90
2022-11-29T17:03:35.836Z,7.07
2022-11-29T17:06:38.012Z,8.40
2022-11-29T17:09:39.737Z,7.93
2022-11-29T17:12:46.471Z,4.38
2022-11-29T17:15:49.810Z,4.30
2022-11-29T17:18:52.859Z,5.57
2022-11-29T17:21:54.553Z,5.63
2022-11-29T17:24:56.165Z,4.97
2022-11-29T17:27:58.084Z,5.28
2022-11-29T17:31:07.290Z,4.90
2022-11-29T17:34:08.945Z,4.95
2022-11-29T17:37:13.717Z,4.32
2022-11-29T17:40:15.690Z,5.28
2022-11-29T17:43:17.448Z,5.43
2022-11-29T17:46:26.366Z,5.65
2022-11-29T17:49:28.185Z,7.40
2022-11-29T17:52:29.885Z,10.50
2022-11-29T17:55:31.508Z,14.82
2022-11-29T17:58:33.825Z,12.40
2022-11-29T18:01:36.517Z,13.15
2022-11-29T18:04:41.922Z,22.67
2022-11-29T18:07:57.941Z,10.07
2022-11-29T18:11:07.563Z,10.95
2022-11-29T18:14:11.309Z,15.30
2022-11-29T18:17:13.307Z,12.77
2022-11-29T18:20:15.125Z,7.78
2022-11-29T18:23:16.836Z,6.25
2022-11-29T18:26:20.990Z,5.53
2022-11-29T18:29:23.175Z,13.98
2022-11-29T18:32:24.802Z,12.90
2022-11-29T18:35:27.992Z,15.65
2022-11-29T18:38:29.726Z,12.23
2022-11-29T18:41:31.807Z,13.30
2022-11-29T18:44:33.927Z,13.35
2022-11-29T18:47:35.930Z,11.40
2022-11-29T18:50:37.999Z,12.95
2022-11-29T18:53:40.116Z,14.65
2022-11-29T18:56:43.997Z,20.70
2022-11-29T18:59:46.241Z,13.52
2022-11-29T19:02:50.492Z,8.25
2022-11-29T19:05:55.076Z,10.50
2022-11-29T19:09:01.227Z,9.65
2022-11-29T19:12:03.773Z,9.05
2022-11-29T19:15:05.890Z,8.43
2022-11-29T19:18:07.681Z,14.68
2022-11-29T19:21:14.937Z,13.80
2022-11-29T19:24:18.205Z,8.93
2022-11-29T19:27:26.051Z,9.88
2022-11-29T19:30:27.832Z,10.43
2022-11-29T19:33:32.047Z,9.40
2022-11-29T19:36:35.318Z,11.30
2022-11-29T19:39:38.221Z,14.23
2022-11-29T19:42:39.880Z,11.23
2022-11-29T19:45:41.646Z,5.38
2022-11-29T19:48:44.146Z,5.22
2022-11-29T19:51:46.022Z,5.73
2022-11-29T19:54:47.700Z,6.18
2022-11-29T19:57:49.347Z,5.78
2022-11-29T20:00:51.139Z,7.20
2022-11-29T20:03:52.931Z,9.93
2022-11-29T20:06:54.828Z,7.97
2022-11-29T20:09:56.554Z,8.80
2022-11-29T20:12:58.307Z,10.07
2022-11-29T20:16:09.930Z,9.50
2022-11-29T20:19:14.535Z,9.20
2022-11-29T20:22:16.197Z,8.07
2022-11-29T20:25:18.161Z,7.65
2022-11-29T20:28:23.128Z,9.48
2022-11-29T20:31:25.098Z,9.23
2022-11-29T20:34:27.140Z,14.52
2022-11-29T20:38:08.739Z,11.95
2022-11-29T20:41:23.546Z,9.07
2022-11-29T20:44:38.081Z,9.50
2022-11-29T20:47:58.750Z,9.05
2022-11-29T20:51:02.208Z,9.98
2022-11-29T20:54:04.845Z,8.57
2022-11-29T20:57:06.662Z,10.20
2022-11-29T21:00:11.765Z,8.63
2022-11-29T21:03:18.310Z,7.70
2022-11-29T21:06:20.143Z,8.30
2022-11-29T21:09:21.906Z,8.35
2022-11-29T21:12:26.585Z,8.73
2022-11-29T21:15:28.834Z,8.50
2022-11-29T21:18:31.679Z,8.70
2022-11-29T21:21:45.141Z,8.30
2022-11-29T21:25:05.840Z,8.45
2022-11-29T21:28:15.618Z,9.18
2022-11-29T21:31:18.019Z,9.07
2022-11-29T21:34:20.958Z,10.80
2022-11-29T21:37:27.592Z,8.90
2022-11-29T21:40:29.292Z,9.60
2022-11-29T21:43:58.359Z,8.70
2022-11-29T21:46:52.801Z,11.57
2022-11-29T21:49:54.814Z,23.80
2022-11-29T21:52:56.626Z,26.70
2022-11-29T21:56:00.080Z,10.98
2022-11-29T22:02:04.005Z,10.43
2022-11-29T22:05:07.936Z,10.35
2022-11-29T22:08:09.672Z,11.50
2022-11-29T22:11:17.114Z,10.63
2022-11-29T22:14:19.089Z,10.55
2022-11-29T22:17:20.895Z,10.75
2022-11-29T22:20:22.658Z,11.15
2022-11-29T22:23:24.354Z,11.93
2022-11-29T22:26:25.980Z,12.45
2022-11-29T22:29:28.186Z,12.48
2022-11-29T22:32:29.778Z,12.43
2022-11-29T22:35:31.369Z,13.70
2022-11-29T22:38:33.978Z,14.05
2022-11-29T22:41:37.741Z,14.25
2022-11-29T22:44:39.696Z,14.15
2022-11-29T22:47:41.459Z,16.60
2022-11-29T22:50:43.188Z,14.95
2022-11-29T22:53:52.402Z,15.57
2022-11-29T22:56:54.671Z,16.30
2022-11-29T22:59:56.357Z,16.20
2022-11-29T23:02:57.980Z,13.93
2022-11-29T23:06:09.759Z,13.40
2022-11-29T23:09:19.845Z,15.60
2022-11-29T23:12:21.897Z,14.90
2022-11-29T23:15:23.624Z,13.52
2022-11-29T23:18:25.258Z,14.05
2022-11-29T23:21:32.472Z,14.60
2022-11-29T23:24:34.278Z,12.73
2022-11-29T23:27:35.935Z,12.52
2022-11-29T23:30:37.772Z,12.98
2022-11-29T23:33:39.678Z,13.68
2022-11-29T23:36:41.748Z,12.48
2022-11-29T23:39:43.439Z,10.73
2022-11-29T23:42:47.192Z,11.27
2022-11-29T23:45:49.487Z,13.55
2022-11-29T23:48:54.025Z,13.43
2022-11-29T23:51:55.799Z,13.77
2022-11-29T23:54:57.438Z,11.50
2022-11-29T23:58:01.267Z,12.30
